createdAt,value
2022-12-11T01:21:25.200Z,92.25
2022-12-11T01:22:25.431Z,92.35
2022-12-11T01:23:27.603Z,92.46
2022-12-11T01:24:27.770Z,92.57
2022-12-11T01:25:26.817Z,92.67
2022-12-11T01:26:26.967Z,92.57
2022-12-11T01:27:26.212Z,92.14
2022-12-11T01:28:26.422Z,92.57
2022-12-11T01:29:26.624Z,92.67
2022-12-11T01:30:26.906Z,92.98
2022-12-11T01:31:27.224Z,93.40
2022-12-11T01:32:28.300Z,92.98
2022-12-11T01:33:29.461Z,92.67
2022-12-11T01:34:27.650Z,92.88
2022-12-11T01:35:27.872Z,92.77
2022-12-11T01:36:28.060Z,92.98
2022-12-11T01:37:30.320Z,92.31
2022-12-11T01:38:30.536Z,91.20
2022-12-11T01:39:28.761Z,91.09
2022-12-11T01:40:28.978Z,91.31
2022-12-11T01:41:31.141Z,91.41
2022-12-11T01:42:30.830Z,91.41
2022-12-11T01:43:29.539Z,91.31
2022-12-11T01:44:29.730Z,91.09
2022-12-11T01:45:29.941Z,90.99
2022-12-11T01:46:32.181Z,91.09
2022-12-11T01:47:32.450Z,91.41
2022-12-11T01:48:30.652Z,91.52
2022-12-11T01:49:30.861Z,91.83
2022-12-11T01:50:31.060Z,91.94
2022-12-11T01:51:31.287Z,91.62
2022-12-11T01:52:33.500Z,91.62
2022-12-11T01:53:31.701Z,92.14
2022-12-11T01:54:31.927Z,92.25
2022-12-11T01:55:32.134Z,92.04
2022-12-11T01:56:32.373Z,92.35
2022-12-11T01:57:32.570Z,92.35
2022-12-11T01:58:32.762Z,92.35
2022-12-11T01:59:33.020Z,92.25
2022-12-11T02:00:34.732Z,92.67
2022-12-11T02:01:33.515Z,92.57
2022-12-11T02:02:35.736Z,92.57
2022-12-11T02:03:33.951Z,92.88
2022-12-11T02:04:36.109Z,92.88
2022-12-11T02:05:35.259Z,92.88
2022-12-11T02:06:34.462Z,92.88
2022-12-11T02:07:36.643Z,93.19
2022-12-11T02:08:36.852Z,93.51
2022-12-11T02:09:35.991Z,93.71
2022-12-11T02:10:36.640Z,93.93
2022-12-11T02:11:35.360Z,93.51
2022-12-11T02:12:35.552Z,93.19
2022-12-11T02:13:36.710Z,92.77
2022-12-11T02:14:35.911Z,92.77
2022-12-11T02:15:38.087Z,93.08
2022-12-11T02:16:36.341Z,93.19
2022-12-11T02:17:38.533Z,93.08
2022-12-11T02:18:36.752Z,93.08
2022-12-11T02:19:37.912Z,93.08
2022-12-11T02:20:37.101Z,93.19
2022-12-11T02:21:37.330Z,93.30
2022-12-11T02:22:39.541Z,93.51
2022-12-11T02:23:37.783Z,93.40
2022-12-11T02:24:37.992Z,93.71
2022-12-11T02:25:38.202Z,93.19
2022-12-11T02:26:40.350Z,93.08
2022-12-11T02:27:38.581Z,93.19
2022-12-11T02:28:39.801Z,93.30
2022-12-11T02:29:39.010Z,93.51
2022-12-11T02:30:39.204Z,93.19
2022-12-11T02:31:39.453Z,92.98
2022-12-11T02:32:39.705Z,93.30
2022-12-11T02:33:40.881Z,93.51
2022-12-11T02:34:41.041Z,93.61
2022-12-11T02:35:41.212Z,93.71
2022-12-11T02:36:42.361Z,93.93
2022-12-11T02:37:41.583Z,94.24
2022-12-11T02:38:40.821Z,94.56
2022-12-11T02:39:41.021Z,94.76
2022-12-11T02:40:43.215Z,95.25
2022-12-11T02:41:42.363Z,95.14
2022-12-11T02:42:42.564Z,94.40
2022-12-11T02:43:41.769Z,93.61
2022-12-11T02:44:42.911Z,93.30
2022-12-11T02:45:43.087Z,93.51
2022-12-11T02:46:43.793Z,93.71
2022-12-11T02:47:42.520Z,94.13
2022-12-11T02:48:43.721Z,94.62
2022-12-11T02:49:42.912Z,94.72
2022-12-11T02:50:43.122Z,94.62
2022-12-11T02:51:43.316Z,94.24
2022-12-11T02:52:44.492Z,93.93
2022-12-11T02:53:43.672Z,93.51
2022-12-11T02:54:46.393Z,93.61
2022-12-11T02:55:46.053Z,93.71
2022-12-11T02:56:45.222Z,93.61
2022-12-11T02:57:44.451Z,93.51
2022-12-11T02:58:46.613Z,93.71
2022-12-11T02:59:46.155Z,94.13
2022-12-11T03:00:44.861Z,94.66
2022-12-11T03:01:47.090Z,94.24
2022-12-11T03:02:45.367Z,94.13
2022-12-11T03:03:47.571Z,94.45
2022-12-11T03:04:48.697Z,94.76
2022-12-11T03:05:47.871Z,94.87
2022-12-11T03:06:47.033Z,94.76
2022-12-11T03:07:48.248Z,94.76
2022-12-11T03:08:47.442Z,95.18
2022-12-11T03:09:46.723Z,95.07
2022-12-11T03:10:46.931Z,94.97
2022-12-11T03:11:49.114Z,94.97
2022-12-11T03:12:53.045Z,95.07
2022-12-11T03:13:48.671Z,95.07
2022-12-11T03:14:51.297Z,94.66
2022-12-11T03:15:48.003Z,94.13
2022-12-11T03:16:49.151Z,94.56
2022-12-11T03:17:48.362Z,94.87
2022-12-11T03:18:48.571Z,94.66
2022-12-11T03:19:48.781Z,94.66
2022-12-11T03:20:49.030Z,94.76
2022-12-11T03:21:49.232Z,94.56
2022-12-11T03:22:50.432Z,94.56
2022-12-11T03:23:50.592Z,94.66
2022-12-11T03:24:49.812Z,95.39
2022-12-11T03:25:50.046Z,95.39
2022-12-11T03:26:55.973Z,95.18
2022-12-11T03:27:50.625Z,94.87
2022-12-11T03:28:52.801Z,94.76
2022-12-11T03:29:50.991Z,94.62
2022-12-11T03:30:51.232Z,94.56
2022-12-11T03:31:51.472Z,94.56
2022-12-11T03:32:51.702Z,94.72
2022-12-11T03:33:52.851Z,94.51
2022-12-11T03:34:56.965Z,94.62
2022-12-11T03:35:52.455Z,94.51
2022-12-11T03:36:52.672Z,94.51
2022-12-11T03:37:53.889Z,94.40
2022-12-11T03:38:53.091Z,94.30
2022-12-11T03:39:53.279Z,94.20
2022-12-11T03:40:53.471Z,94.09
2022-12-11T03:41:53.662Z,93.99
2022-12-11T03:42:53.881Z,94.20
2022-12-11T03:43:54.110Z,94.30
2022-12-11T03:44:54.316Z,94.72
2022-12-11T03:45:54.554Z,94.82
2022-12-11T03:46:54.794Z,94.93
2022-12-11T03:47:55.957Z,95.03
2022-12-11T03:48:55.195Z,95.25
2022-12-11T03:49:55.407Z,95.25
2022-12-11T03:50:56.564Z,95.14
2022-12-11T03:51:55.751Z,95.14
2022-12-11T03:52:55.952Z,95.03
2022-12-11T03:53:56.171Z,95.25
2022-12-11T03:54:56.376Z,95.56
2022-12-11T03:55:56.603Z,95.87
2022-12-11T03:56:56.813Z,96.19
2022-12-11T03:57:57.012Z,96.19
2022-12-11T03:58:57.221Z,96.08
2022-12-11T03:59:59.398Z,95.87
2022-12-11T04:00:59.572Z,95.76
2022-12-11T04:01:57.864Z,95.66
2022-12-11T04:03:00.076Z,95.66
2022-12-11T04:03:58.395Z,95.76
2022-12-11T04:05:00.632Z,95.76
2022-12-11T04:05:58.850Z,95.76
2022-12-11T04:07:00.532Z,95.76
2022-12-11T04:08:00.719Z,95.76
2022-12-11T04:08:59.452Z,95.81
2022-12-11T04:09:59.642Z,95.87
2022-12-11T04:11:00.792Z,96.02
2022-12-11T04:12:00.013Z,96.02
2022-12-11T04:13:00.213Z,95.92
2022-12-11T04:14:00.431Z,95.92
2022-12-11T04:15:00.636Z,95.81
2022-12-11T04:16:00.874Z,95.92
2022-12-11T04:17:01.119Z,96.02
2022-12-11T04:18:03.272Z,96.02
2022-12-11T04:19:01.543Z,96.02
2022-12-11T04:20:02.565Z,96.23
2022-12-11T04:21:01.816Z,96.55
2022-12-11T04:22:03.021Z,96.75
2022-12-11T04:23:03.162Z,96.61
2022-12-11T04:24:03.302Z,96.50
2022-12-11T04:25:03.469Z,97.13
2022-12-11T04:26:04.654Z,97.75
2022-12-11T04:27:03.782Z,98.18
2022-12-11T04:28:03.965Z,97.65
2022-12-11T04:29:04.114Z,97.13
2022-12-11T04:30:04.272Z,96.92
2022-12-11T04:31:04.461Z,96.92
2022-12-11T04:32:05.169Z,96.92
2022-12-11T04:33:04.773Z,96.92
2022-12-11T04:34:04.965Z,96.81
2022-12-11T04:35:05.096Z,96.71
2022-12-11T04:36:05.283Z,96.71
2022-12-11T04:37:05.483Z,96.81
2022-12-11T04:38:06.745Z,96.92
2022-12-11T04:39:05.905Z,96.81
2022-12-11T04:40:06.104Z,96.81
2022-12-11T04:41:06.283Z,96.81
2022-12-11T04:42:06.463Z,96.81
2022-12-11T04:43:06.674Z,96.81
2022-12-11T04:44:06.848Z,96.81
2022-12-11T04:45:08.175Z,96.50
2022-12-11T04:46:07.083Z,96.39
2022-12-11T04:47:07.363Z,96.29
2022-12-11T04:48:08.104Z,96.29
2022-12-11T04:49:07.792Z,96.19
2022-12-11T04:50:07.983Z,96.29
2022-12-11T04:51:08.174Z,96.39
2022-12-11T04:52:08.377Z,96.50
2022-12-11T04:53:08.600Z,96.50
2022-12-11T04:54:08.773Z,96.61
2022-12-11T04:55:09.783Z,96.50
2022-12-11T04:56:09.583Z,96.29
2022-12-11T04:57:09.265Z,96.19
2022-12-11T04:58:09.976Z,96.29
2022-12-11T04:59:09.663Z,96.61
2022-12-11T05:00:09.864Z,96.81
2022-12-11T05:01:09.869Z,96.86
2022-12-11T05:02:09.093Z,96.75
2022-12-11T05:03:09.347Z,96.86
2022-12-11T05:04:11.552Z,97.06
2022-12-11T05:05:10.153Z,97.59
2022-12-11T05:06:12.587Z,97.65
2022-12-11T05:07:10.294Z,97.75
2022-12-11T05:08:11.685Z,97.65
2022-12-11T05:09:10.956Z,97.65
2022-12-11T05:10:12.102Z,97.65
2022-12-11T05:11:11.286Z,97.65
2022-12-11T05:12:11.503Z,97.44
2022-12-11T05:13:12.693Z,97.23
2022-12-11T05:14:11.937Z,97.23
2022-12-11T05:15:14.197Z,97.44
2022-12-11T05:16:12.445Z,97.55
2022-12-11T05:17:15.507Z,97.34
2022-12-11T05:18:12.744Z,97.23
2022-12-11T05:19:13.416Z,97.02
2022-12-11T05:20:15.073Z,97.02
2022-12-11T05:21:13.284Z,97.02
2022-12-11T05:22:13.485Z,97.02
2022-12-11T05:23:15.673Z,97.13
2022-12-11T05:24:13.865Z,97.23
2022-12-11T05:25:14.238Z,97.34
2022-12-11T05:26:14.497Z,97.44
2022-12-11T05:27:15.665Z,97.55
2022-12-11T05:28:15.835Z,97.55
2022-12-11T05:29:15.040Z,97.65
2022-12-11T05:30:16.246Z,97.86
2022-12-11T05:31:16.993Z,98.18
2022-12-11T05:32:15.793Z,98.18
2022-12-11T05:33:16.952Z,98.18
2022-12-11T05:34:16.166Z,98.07
2022-12-11T05:35:18.324Z,97.86
2022-12-11T05:36:18.513Z,97.75
2022-12-11T05:37:16.743Z,97.65
2022-12-11T05:38:18.014Z,97.44
2022-12-11T05:39:18.165Z,97.44
2022-12-11T05:40:19.351Z,97.44
2022-12-11T05:41:17.563Z,97.44
2022-12-11T05:42:17.755Z,97.44
2022-12-11T05:43:19.914Z,97.55
2022-12-11T05:44:18.114Z,97.65
2022-12-11T05:45:18.355Z,97.65
2022-12-11T05:46:20.599Z,97.86
2022-12-11T05:47:18.884Z,97.65
2022-12-11T05:48:20.035Z,97.55
2022-12-11T05:49:20.160Z,97.44
2022-12-11T05:50:19.483Z,97.34
2022-12-11T05:51:19.692Z,97.34
2022-12-11T05:52:19.917Z,97.23
2022-12-11T05:53:21.084Z,97.34
2022-12-11T05:54:21.254Z,97.44
2022-12-11T05:55:20.503Z,98.07
2022-12-11T05:56:21.654Z,98.18
2022-12-11T05:57:22.833Z,97.96
2022-12-11T05:58:21.035Z,97.75
2022-12-11T05:59:22.200Z,97.55
2022-12-11T06:00:21.426Z,97.55
2022-12-11T06:01:24.523Z,97.44
2022-12-11T06:02:21.830Z,97.34
2022-12-11T06:03:22.184Z,97.23
2022-12-11T06:04:22.388Z,97.34
2022-12-11T06:05:22.636Z,97.44
2022-12-11T06:06:22.844Z,97.55
2022-12-11T06:07:25.044Z,97.55
2022-12-11T06:08:25.274Z,97.75
2022-12-11T06:09:23.504Z,97.86
2022-12-11T06:10:25.705Z,97.75
2022-12-11T06:11:24.894Z,97.75
2022-12-11T06:12:24.105Z,97.75
2022-12-11T06:13:26.263Z,97.75
2022-12-11T06:14:24.484Z,97.75
2022-12-11T06:15:26.684Z,97.75
2022-12-11T06:16:25.017Z,97.96
2022-12-11T06:17:25.245Z,98.07
2022-12-11T06:18:25.461Z,98.69
2022-12-11T06:19:25.674Z,98.80
2022-12-11T06:20:26.836Z,98.80
2022-12-11T06:21:27.037Z,98.91
2022-12-11T06:22:26.236Z,98.80
2022-12-11T06:23:26.456Z,98.59
2022-12-11T06:24:26.666Z,98.49
2022-12-11T06:25:27.833Z,98.49
2022-12-11T06:26:27.107Z,98.49
2022-12-11T06:27:28.265Z,98.38
2022-12-11T06:28:28.431Z,98.49
2022-12-11T06:29:29.595Z,98.49
2022-12-11T06:30:38.642Z,98.69
2022-12-11T06:31:29.297Z,98.69
2022-12-11T06:32:29.974Z,98.80
2022-12-11T06:33:28.674Z,98.80
2022-12-11T06:34:29.893Z,98.91
2022-12-11T06:35:29.125Z,98.91
2022-12-11T06:36:30.311Z,98.91
2022-12-11T06:37:29.525Z,98.80
2022-12-11T06:38:31.214Z,98.91
2022-12-11T06:39:29.956Z,98.80
2022-12-11T06:40:31.114Z,98.80
2022-12-11T06:41:30.340Z,98.91
2022-12-11T06:42:31.338Z,98.91
2022-12-11T06:43:31.045Z,98.91
2022-12-11T06:44:32.244Z,99.01
2022-12-11T06:45:31.509Z,99.11
2022-12-11T06:46:31.727Z,99.43
2022-12-11T06:47:33.904Z,99.74
2022-12-11T06:48:33.105Z,99.85
2022-12-11T06:49:32.380Z,99.74
2022-12-11T06:50:33.526Z,99.43
2022-12-11T06:51:34.234Z,99.01
2022-12-11T06:52:32.966Z,98.80
2022-12-11T06:53:35.155Z,98.91
2022-12-11T06:54:33.430Z,98.80
2022-12-11T06:55:34.654Z,98.59
2022-12-11T06:56:33.866Z,98.49
2022-12-11T06:57:35.006Z,98.49
2022-12-11T06:58:35.155Z,98.38
2022-12-11T06:59:34.395Z,97.96
2022-12-11T07:00:34.628Z,97.86
2022-12-11T07:01:36.804Z,97.55
2022-12-11T07:02:35.077Z,97.44
2022-12-11T07:03:36.299Z,97.34
2022-12-11T07:04:35.537Z,97.44
2022-12-11T07:05:35.775Z,97.55
2022-12-11T07:06:36.946Z,97.34
2022-12-11T07:07:38.117Z,97.23
2022-12-11T07:08:37.827Z,97.02
2022-12-11T07:09:36.665Z,96.81
2022-12-11T07:10:36.953Z,96.81
2022-12-11T07:11:38.126Z,96.81
2022-12-11T07:12:37.343Z,96.92
2022-12-11T07:13:38.525Z,96.81
2022-12-11T07:14:37.739Z,96.61
2022-12-11T07:15:40.529Z,96.50
2022-12-11T07:16:40.372Z,96.50
2022-12-11T07:17:40.598Z,96.50
2022-12-11T07:18:38.816Z,96.71
2022-12-11T07:19:40.507Z,96.81
2022-12-11T07:20:40.195Z,97.13
2022-12-11T07:21:39.395Z,97.23
2022-12-11T07:22:46.093Z,97.23
2022-12-11T07:23:39.756Z,97.23
2022-12-11T07:24:39.975Z,97.34
2022-12-11T07:25:40.185Z,97.44
2022-12-11T07:26:40.407Z,97.55
2022-12-11T07:27:41.642Z,97.44
2022-12-11T07:28:42.694Z,97.55
2022-12-11T07:29:40.897Z,97.55
2022-12-11T07:30:41.131Z,97.65
2022-12-11T07:31:42.369Z,97.75
2022-12-11T07:32:43.160Z,97.75
2022-12-11T07:33:43.841Z,97.86
2022-12-11T07:34:46.071Z,97.86
2022-12-11T07:35:44.316Z,97.86
2022-12-11T07:36:42.539Z,98.07
2022-12-11T07:37:44.727Z,98.18
2022-12-11T07:38:44.955Z,98.59
2022-12-11T07:39:43.192Z,98.59
2022-12-11T07:40:45.356Z,98.38
2022-12-11T07:41:43.555Z,98.18
2022-12-11T07:42:46.341Z,97.96
2022-12-11T07:43:44.267Z,97.96
2022-12-11T07:44:44.505Z,97.86
2022-12-11T07:45:46.704Z,97.86
2022-12-11T07:46:46.917Z,97.86
2022-12-11T07:47:45.138Z,97.86
2022-12-11T07:48:47.355Z,97.86
2022-12-11T07:49:45.627Z,97.75
2022-12-11T07:50:47.796Z,97.75
2022-12-11T07:51:45.998Z,97.86
2022-12-11T07:52:47.681Z,97.96
2022-12-11T07:53:46.444Z,97.96
2022-12-11T07:54:48.625Z,97.96
2022-12-11T07:55:46.839Z,97.96
2022-12-11T07:56:52.820Z,98.07
2022-12-11T07:57:47.347Z,98.07
2022-12-11T07:58:49.556Z,98.07
2022-12-11T07:59:47.770Z,98.18
2022-12-11T08:00:49.956Z,98.28
2022-12-11T08:01:50.226Z,98.18
2022-12-11T08:02:49.468Z,98.18
2022-12-11T08:03:49.707Z,98.07
2022-12-11T08:04:48.915Z,97.96
2022-12-11T08:05:49.126Z,97.96
2022-12-11T08:06:51.306Z,97.86
2022-12-11T08:07:51.557Z,97.75
2022-12-11T08:08:49.832Z,97.75
2022-12-11T08:09:50.064Z,97.65
2022-12-11T08:10:51.729Z,97.65
2022-12-11T08:11:52.452Z,97.75
2022-12-11T08:12:51.664Z,97.75
2022-12-11T08:13:50.877Z,97.65
2022-12-11T08:14:52.056Z,97.65
2022-12-11T08:15:51.255Z,97.86
2022-12-11T08:16:52.997Z,97.86
2022-12-11T08:17:52.710Z,97.65
2022-12-11T08:18:51.937Z,97.71
2022-12-11T08:19:52.146Z,97.81
2022-12-11T08:20:52.359Z,97.92
2022-12-11T08:21:52.563Z,97.81
2022-12-11T08:22:59.029Z,97.81
2022-12-11T08:23:53.051Z,97.71
2022-12-11T08:24:53.265Z,97.71
2022-12-11T08:25:53.463Z,97.92
2022-12-11T08:26:53.666Z,97.92
2022-12-11T08:27:53.896Z,97.81
2022-12-11T08:28:54.116Z,97.71
2022-12-11T08:29:56.278Z,97.61
2022-12-11T08:30:56.497Z,97.39
2022-12-11T08:31:55.675Z,97.19
2022-12-11T08:32:55.856Z,97.08
2022-12-11T08:33:55.068Z,97.19
2022-12-11T08:34:56.159Z,97.29
2022-12-11T08:35:56.313Z,97.29
2022-12-11T08:36:56.997Z,97.19
2022-12-11T08:37:59.569Z,97.19
2022-12-11T08:38:55.831Z,97.39
2022-12-11T08:39:56.027Z,97.39
2022-12-11T08:40:56.268Z,97.39
2022-12-11T08:41:56.457Z,97.19
2022-12-11T08:42:56.688Z,97.08
2022-12-11T08:43:56.896Z,96.98
2022-12-11T08:44:57.106Z,96.98
2022-12-11T08:45:59.314Z,96.98
2022-12-11T08:46:57.538Z,97.08
2022-12-11T08:47:57.736Z,97.29
2022-12-11T08:48:57.968Z,97.39
2022-12-11T08:49:58.200Z,97.45
2022-12-11T08:50:58.438Z,97.45
2022-12-11T08:51:59.620Z,97.67
2022-12-11T08:53:00.805Z,97.45
2022-12-11T08:53:59.052Z,96.94
2022-12-11T08:55:01.199Z,96.94
2022-12-11T08:55:59.449Z,97.14
2022-12-11T08:57:01.647Z,97.25
2022-12-11T08:58:01.326Z,96.94
2022-12-11T08:59:02.001Z,96.72
2022-12-11T09:00:01.188Z,96.51
2022-12-11T09:01:00.508Z,96.41
2022-12-11T09:02:00.779Z,96.41
2022-12-11T09:03:01.025Z,96.31
2022-12-11T09:04:01.258Z,96.31
2022-12-11T09:05:02.927Z,96.31
2022-12-11T09:06:01.738Z,96.31
2022-12-11T09:07:03.037Z,96.41
2022-12-11T09:08:03.895Z,96.41
2022-12-11T09:09:02.660Z,96.41
2022-12-11T09:10:04.833Z,96.51
2022-12-11T09:11:03.072Z,96.62
2022-12-11T09:12:03.307Z,96.62
2022-12-11T09:13:03.527Z,96.83
2022-12-11T09:14:07.669Z,96.83
2022-12-11T09:15:03.772Z,97.04
2022-12-11T09:16:04.033Z,97.04
2022-12-11T09:17:04.320Z,96.89
2022-12-11T09:18:04.539Z,96.68
2022-12-11T09:19:04.771Z,96.47
2022-12-11T09:20:05.907Z,96.47
2022-12-11T09:21:06.598Z,96.47
2022-12-11T09:22:05.311Z,96.37
2022-12-11T09:23:07.477Z,96.26
2022-12-11T09:24:05.667Z,96.26
2022-12-11T09:25:05.883Z,96.16
2022-12-11T09:26:08.078Z,96.05
2022-12-11T09:27:08.359Z,96.05
2022-12-11T09:28:06.558Z,96.16
2022-12-11T09:29:06.795Z,96.16
2022-12-11T09:30:06.992Z,96.26
2022-12-11T09:31:07.240Z,96.37
2022-12-11T09:32:11.426Z,96.37
2022-12-11T09:33:08.587Z,96.26
2022-12-11T09:34:09.736Z,96.16
2022-12-11T09:35:08.102Z,96.16
2022-12-11T09:36:09.448Z,96.05
2022-12-11T09:37:09.121Z,95.95
2022-12-11T09:38:10.798Z,96.16
2022-12-11T09:39:08.519Z,95.95
2022-12-11T09:40:08.707Z,95.74
2022-12-11T09:41:08.910Z,95.64
2022-12-11T09:42:09.129Z,95.84
2022-12-11T09:43:09.331Z,96.05
2022-12-11T09:44:09.539Z,96.16
2022-12-11T09:45:10.834Z,96.26
2022-12-11T09:46:11.238Z,96.26
2022-12-11T09:47:11.549Z,96.26
2022-12-11T09:48:12.718Z,96.16
2022-12-11T09:49:10.927Z,96.05
2022-12-11T09:50:11.118Z,95.95
2022-12-11T09:51:12.316Z,95.84
2022-12-11T09:52:13.039Z,95.64
2022-12-11T09:53:14.227Z,95.53
2022-12-11T09:54:11.928Z,95.53
2022-12-11T09:55:12.337Z,95.64
2022-12-11T09:56:14.659Z,95.84
2022-12-11T09:57:12.420Z,95.95
2022-12-11T09:58:14.572Z,96.05
2022-12-11T09:59:12.781Z,96.16
2022-12-11T10:00:12.988Z,95.95
2022-12-11T10:01:14.193Z,96.05
2022-12-11T10:02:13.513Z,95.95
2022-12-11T10:03:13.751Z,96.05
2022-12-11T10:04:13.953Z,95.95
2022-12-11T10:05:14.283Z,96.05
2022-12-11T10:06:14.560Z,95.95
2022-12-11T10:07:14.800Z,95.95
2022-12-11T10:08:16.034Z,95.95
2022-12-11T10:09:15.268Z,95.95
2022-12-11T10:10:16.938Z,96.05
2022-12-11T10:11:15.640Z,96.11
2022-12-11T10:12:15.889Z,96.11
2022-12-11T10:13:17.108Z,96.01
2022-12-11T10:14:16.310Z,95.80
2022-12-11T10:15:17.512Z,95.70
2022-12-11T10:16:20.181Z,95.70
2022-12-11T10:17:16.941Z,95.49
2022-12-11T10:18:18.139Z,95.49
2022-12-11T10:19:17.341Z,95.38
2022-12-11T10:20:17.601Z,95.38
2022-12-11T10:21:19.869Z,95.38
2022-12-11T10:22:18.074Z,95.49
2022-12-11T10:23:18.301Z,95.38
2022-12-11T10:24:48.860Z,95.38
2022-12-11T10:25:26.276Z,95.49
2022-12-11T10:26:28.192Z,95.38
2022-12-11T10:27:27.359Z,95.38
2022-12-11T10:28:28.081Z,95.49
2022-12-11T10:29:27.738Z,95.59
2022-12-11T10:30:33.052Z,95.59
2022-12-11T10:31:28.220Z,95.70
2022-12-11T10:32:28.386Z,95.90
2022-12-11T10:33:27.607Z,95.90
2022-12-11T10:34:28.770Z,95.80
2022-12-11T10:35:27.986Z,95.59
2022-12-11T10:36:28.179Z,95.49
2022-12-11T10:37:30.353Z,95.38
2022-12-11T10:38:28.599Z,95.28
2022-12-11T10:39:30.260Z,95.17
2022-12-11T10:40:30.931Z,95.28
2022-12-11T10:41:29.140Z,95.49
2022-12-11T10:42:29.339Z,95.70
2022-12-11T10:43:29.570Z,95.97
2022-12-11T10:44:30.740Z,95.49
2022-12-11T10:45:30.891Z,95.28
2022-12-11T10:46:30.137Z,95.17
2022-12-11T10:47:30.375Z,95.17
2022-12-11T10:48:32.563Z,95.07
2022-12-11T10:49:32.720Z,94.96
2022-12-11T10:50:32.871Z,94.86
2022-12-11T10:51:31.090Z,94.96
2022-12-11T10:52:31.304Z,95.07
2022-12-11T10:53:31.562Z,95.59
2022-12-11T10:54:31.783Z,95.49
2022-12-11T10:55:33.953Z,95.59
2022-12-11T10:56:34.153Z,95.70
2022-12-11T10:57:32.355Z,95.80
2022-12-11T10:58:32.591Z,95.80
2022-12-11T10:59:32.790Z,96.11
2022-12-11T11:00:32.994Z,96.33
2022-12-11T11:01:35.267Z,96.53
2022-12-11T11:02:33.552Z,96.33
2022-12-11T11:03:34.801Z,96.01
2022-12-11T11:04:33.991Z,95.70
2022-12-11T11:05:35.220Z,95.76
2022-12-11T11:06:34.414Z,95.76
2022-12-11T11:07:36.580Z,95.44
2022-12-11T11:08:36.890Z,95.34
2022-12-11T11:09:36.063Z,95.65
2022-12-11T11:10:35.262Z,95.76
2022-12-11T11:11:35.492Z,95.86
2022-12-11T11:12:35.696Z,95.76
2022-12-11T11:13:35.948Z,95.65
2022-12-11T11:14:36.153Z,95.55
2022-12-11T11:15:36.352Z,95.55
2022-12-11T11:16:36.612Z,95.65
2022-12-11T11:17:40.026Z,95.55
2022-12-11T11:18:36.891Z,95.38
2022-12-11T11:19:37.091Z,95.38
2022-12-11T11:20:37.304Z,95.59
2022-12-11T11:21:37.511Z,95.70
2022-12-11T11:22:37.701Z,95.59
2022-12-11T11:23:44.275Z,95.49
2022-12-11T11:24:38.246Z,95.59
2022-12-11T11:25:38.449Z,95.80
2022-12-11T11:27:11.534Z,96.01
2022-12-11T11:27:40.712Z,95.80
2022-12-11T11:28:39.861Z,95.80
2022-12-11T11:29:39.061Z,96.01
2022-12-11T11:30:39.262Z,96.22
2022-12-11T11:31:41.545Z,96.43
2022-12-11T11:32:41.811Z,96.01
2022-12-11T11:33:40.031Z,95.90
2022-12-11T11:34:41.200Z,95.90
2022-12-11T11:35:45.706Z,96.01
2022-12-11T11:36:42.581Z,96.11
2022-12-11T11:37:40.821Z,96.33
2022-12-11T11:38:43.018Z,96.64
2022-12-11T11:39:41.224Z,96.74
2022-12-11T11:40:41.437Z,97.05
2022-12-11T11:41:41.632Z,97.05
2022-12-11T11:42:41.870Z,97.11
2022-12-11T11:43:42.063Z,97.11
2022-12-11T11:44:43.228Z,97.01
2022-12-11T11:45:43.398Z,96.70
2022-12-11T11:46:43.620Z,96.53
2022-12-11T11:47:42.896Z,96.43
2022-12-11T11:48:45.062Z,96.64
2022-12-11T11:49:43.263Z,96.84
2022-12-11T11:50:45.435Z,97.05
2022-12-11T11:51:43.633Z,97.16
2022-12-11T11:52:43.853Z,97.27
2022-12-11T11:53:45.011Z,97.37
2022-12-11T11:54:44.214Z,97.37
2022-12-11T11:55:44.422Z,97.27
2022-12-11T11:56:45.591Z,97.27
2022-12-11T11:57:46.322Z,97.22
2022-12-11T11:58:45.023Z,97.22
2022-12-11T11:59:45.227Z,97.27
2022-12-11T12:00:47.422Z,97.16
2022-12-11T12:01:47.603Z,96.95
2022-12-11T12:02:47.853Z,96.95
2022-12-11T12:03:46.077Z,96.84
2022-12-11T12:04:47.739Z,96.74
2022-12-11T12:05:46.463Z,96.74
2022-12-11T12:06:50.723Z,96.74
2022-12-11T12:07:48.264Z,96.95
2022-12-11T12:08:49.983Z,97.05
2022-12-11T12:09:47.782Z,97.16
2022-12-11T12:10:48.972Z,97.27
2022-12-11T12:11:48.181Z,97.27
2022-12-11T12:12:48.493Z,97.27
2022-12-11T12:13:50.117Z,97.27
2022-12-11T12:14:52.737Z,97.47
2022-12-11T12:15:49.222Z,97.68
2022-12-11T12:16:53.643Z,97.78
2022-12-11T12:17:55.108Z,97.78
2022-12-11T12:18:50.143Z,97.43
2022-12-11T12:19:52.305Z,97.22
2022-12-11T12:20:51.325Z,97.01
2022-12-11T12:21:52.473Z,96.91
2022-12-11T12:22:51.552Z,96.84
2022-12-11T12:23:50.804Z,96.91
2022-12-11T12:24:51.023Z,96.91
2022-12-11T12:25:51.270Z,97.05
2022-12-11T12:26:51.524Z,97.05
2022-12-11T12:27:53.844Z,97.16
2022-12-11T12:28:52.192Z,97.05
2022-12-11T12:29:53.393Z,97.05
2022-12-11T12:30:52.602Z,97.27
2022-12-11T12:31:52.868Z,97.16
2022-12-11T12:32:55.077Z,97.16
2022-12-11T12:33:54.166Z,97.05
2022-12-11T12:34:54.354Z,97.16
2022-12-11T12:35:53.563Z,97.16
2022-12-11T12:36:55.744Z,96.95
2022-12-11T12:37:55.953Z,97.05
2022-12-11T12:38:54.223Z,97.27
2022-12-11T12:39:54.442Z,97.27
2022-12-11T12:40:54.646Z,97.05
2022-12-11T12:41:55.822Z,96.84
2022-12-11T12:42:55.036Z,96.74
2022-12-11T12:43:55.322Z,96.95
2022-12-11T12:44:55.545Z,97.16
2022-12-11T12:45:56.775Z,97.37
2022-12-11T12:46:56.005Z,97.27
2022-12-11T12:47:57.671Z,97.37
2022-12-11T12:48:58.355Z,97.27
2022-12-11T12:49:58.532Z,97.27
2022-12-11T12:50:58.254Z,97.37
2022-12-11T12:51:58.434Z,97.27
2022-12-11T12:52:57.164Z,97.47
2022-12-11T12:53:58.333Z,97.78
2022-12-11T12:54:57.545Z,97.58
2022-12-11T12:55:57.752Z,97.43
2022-12-11T12:56:57.994Z,97.27
2022-12-11T12:58:00.194Z,96.64
2022-12-11T12:58:59.384Z,96.74
2022-12-11T12:59:58.614Z,96.74
2022-12-11T13:00:58.935Z,96.64
2022-12-11T13:01:59.243Z,96.74
2022-12-11T13:03:01.463Z,96.95
2022-12-11T13:03:59.675Z,97.37
2022-12-11T13:05:00.822Z,97.37
2022-12-11T13:06:00.065Z,97.27
2022-12-11T13:07:00.289Z,97.27
2022-12-11T13:08:01.881Z,97.37
2022-12-11T13:09:00.640Z,97.37
2022-12-11T13:10:02.861Z,97.37
2022-12-11T13:11:01.104Z,97.16
2022-12-11T13:12:01.312Z,96.95
2022-12-11T13:13:01.532Z,96.95
2022-12-11T13:14:01.767Z,96.95
2022-12-11T13:15:01.993Z,97.16
2022-12-11T13:16:02.297Z,97.16
2022-12-11T13:17:02.544Z,97.05
2022-12-11T13:18:02.763Z,97.05
2022-12-11T13:19:02.989Z,96.95
2022-12-11T13:20:03.203Z,97.16
2022-12-11T13:21:03.448Z,97.47
2022-12-11T13:22:03.663Z,97.37
2022-12-11T13:23:05.847Z,97.16
2022-12-11T13:24:04.045Z,97.05
2022-12-11T13:25:04.284Z,97.20
2022-12-11T13:26:04.556Z,97.31
2022-12-11T13:27:04.755Z,97.52
2022-12-11T13:28:05.904Z,97.58
2022-12-11T13:29:05.123Z,97.58
2022-12-11T13:30:05.326Z,97.99
2022-12-11T13:31:07.055Z,98.10
2022-12-11T13:32:06.697Z,97.78
2022-12-11T13:33:05.916Z,97.78
2022-12-11T13:34:06.123Z,97.78
2022-12-11T13:35:07.294Z,97.89
2022-12-11T13:36:09.904Z,97.68
2022-12-11T13:37:08.728Z,97.27
2022-12-11T13:38:09.555Z,97.47
2022-12-11T13:39:07.302Z,97.78
2022-12-11T13:40:10.015Z,97.89
2022-12-11T13:41:07.779Z,97.68
2022-12-11T13:42:13.173Z,97.20
2022-12-11T13:43:08.007Z,96.89
2022-12-11T13:44:08.233Z,97.00
2022-12-11T13:45:10.623Z,97.00
2022-12-11T13:46:10.615Z,97.20
2022-12-11T13:47:08.925Z,97.20
2022-12-11T13:48:16.630Z,97.20
2022-12-11T13:49:10.542Z,97.20
2022-12-11T13:50:10.778Z,97.20
2022-12-11T13:51:09.996Z,97.20
2022-12-11T13:52:12.174Z,97.41
2022-12-11T13:53:10.406Z,97.41
2022-12-11T13:54:15.126Z,97.52
2022-12-11T13:55:11.133Z,97.52
2022-12-11T13:56:12.995Z,97.20
2022-12-11T13:57:11.194Z,97.41
2022-12-11T13:58:12.346Z,97.52
2022-12-11T13:59:13.545Z,97.83
2022-12-11T14:00:17.138Z,97.72
2022-12-11T14:01:14.112Z,97.62
2022-12-11T14:02:13.385Z,97.52
2022-12-11T14:03:12.607Z,97.62
2022-12-11T14:04:14.801Z,97.72
2022-12-11T14:05:13.334Z,97.52
2022-12-11T14:06:18.785Z,96.89
2022-12-11T14:07:15.275Z,96.47
2022-12-11T14:08:15.050Z,96.37
2022-12-11T14:09:15.205Z,96.37
2022-12-11T14:10:15.400Z,96.47
2022-12-11T14:11:14.118Z,96.78
2022-12-11T14:12:14.325Z,97.31
2022-12-11T14:13:14.527Z,97.41
2022-12-11T14:14:14.745Z,97.52
2022-12-11T14:15:16.458Z,97.52
2022-12-11T14:16:15.211Z,97.41